Time;durP1;ratioP1;P1;durP2;ratioP2;P2;SDS_P1;SDS_P2;PMS_P1;PMS_P2;Temp;Humidity;BMP_temperature;BMP_pressure;BME280_temperature;BME280_humidity;BME280_pressure;Samples;Min_cycle;Max_cycle;Signal;HPM_P1;HPM_P2
2022/06/21 00:01:48;;;;;;;0.40;0.35;;;;;;;;;;5018014;28;20030;-78
2022/06/21 00:04:13;;;;;;;0.65;0.45;;;;;;;;;;5023725;28;20018;-78
2022/06/21 00:06:39;;;;;;;0.90;0.60;;;;;;;;;;5015781;28;20100;-78
2022/06/21 00:09:06;;;;;;;0.30;0.30;;;;;;;;;;5016231;28;20080;-79
2022/06/21 00:11:33;;;;;;;0.10;0.10;;;;;;;;;;5013656;28;20479;-78
2022/06/21 00:13:59;;;;;;;0.55;0.50;;;;;;;;;;5032219;28;20033;-77
2022/06/21 00:16:27;;;;;;;0.43;0.40;;;;;;;;;;5015293;28;20049;-77
2022/06/21 00:18:53;;;;;;;0.10;0.10;;;;;;;;;;5022499;28;20034;-78
2022/06/21 00:21:23;;;;;;;0.13;0.10;;;;;;;;;;5015732;28;20108;-78
2022/06/21 00:23:50;;;;;;;0.30;0.30;;;;;;;;;;5023296;28;20080;-77
2022/06/21 00:26:19;;;;;;;0.52;0.52;;;;;;;;;;5016642;28;20026;-79
2022/06/21 00:28:47;;;;;;;1.23;0.80;;;;;;;;;;5000720;28;20022;-79
2022/06/21 00:31:15;;;;;;;0.20;0.20;;;;;;;;;;5018452;28;20033;-78
2022/06/21 00:33:41;;;;;;;0.75;0.43;;;;;;;;;;5015284;28;20155;-80
2022/06/21 00:36:23;;;;;;;0.40;0.40;;;;;;;;;;5013652;28;20360;-79
2022/06/21 00:38:55;;;;;;;0.25;0.25;;;;;;;;;;5022816;28;20037;-79
2022/06/21 00:41:30;;;;;;;0.77;0.30;;;;;;;;;;5031203;28;20120;-79
2022/06/21 00:43:55;;;;;;;3.85;0.80;;;;;;;;;;5012925;28;20029;-79
2022/06/21 00:46:24;;;;;;;0.57;0.57;;;;;;;;;;5016980;28;20047;-79
2022/06/21 00:48:50;;;;;;;2.90;0.65;;;;;;;;;;5016984;28;20159;-79
2022/06/21 00:51:41;;;;;;;0.20;0.20;;;;;;;;;;5013535;28;20069;-78
2022/06/21 00:54:20;;;;;;;1.55;1.13;;;;;;;;;;5014722;28;20122;-78
2022/06/21 00:56:51;;;;;;;0.20;0.20;;;;;;;;;;5015693;28;20489;-79
2022/06/21 00:59:16;;;;;;;0.20;0.20;;;;;;;;;;5026072;28;20029;-79
2022/06/21 01:01:42;;;;;;;0.30;0.30;;;;;;;;;;5017389;28;20022;-79
2022/06/21 01:04:16;;;;;;;0.20;0.20;;;;;;;;;;5018948;28;20041;-79
2022/06/21 01:06:45;;;;;;;1.20;0.50;;;;;;;;;;5017262;28;20339;-79
2022/06/21 01:09:16;;;;;;;0.45;0.40;;;;;;;;;;5012647;28;20411;-76
2022/06/21 01:11:46;;;;;;;0.20;0.20;;;;;;;;;;5013414;28;20026;-77
2022/06/21 01:14:12;;;;;;;0.30;0.30;;;;;;;;;;5013315;28;20117;-76
2022/06/21 01:16:39;;;;;;;0.77;0.77;;;;;;;;;;5007151;28;20451;-77
2022/06/21 01:19:09;;;;;;;1.75;0.93;;;;;;;;;;5012845;28;20033;-78
2022/06/21 01:21:36;;;;;;;0.22;0.15;;;;;;;;;;5014808;28;20490;-79
2022/06/21 01:24:14;;;;;;;4.75;1.33;;;;;;;;;;5011248;28;20033;-77
2022/06/21 01:26:55;;;;;;;0.47;0.47;;;;;;;;;;5013938;28;20033;-77
2022/06/21 01:29:27;;;;;;;0.05;0.05;;;;;;;;;;5013312;28;20040;-78
2022/06/21 01:31:56;;;;;;;0.43;0.40;;;;;;;;;;5007766;28;20383;-78
2022/06/21 01:34:26;;;;;;;0.05;0.05;;;;;;;;;;5001561;28;20030;-77
2022/06/21 01:37:04;;;;;;;0.43;0.40;;;;;;;;;;5023572;28;20481;-77
2022/06/21 01:40:12;;;;;;;0.30;0.25;;;;;;;;;;5016293;28;20052;-77
2022/06/21 01:42:50;;;;;;;2.17;0.85;;;;;;;;;;5032366;28;20436;-76
2022/06/21 01:45:23;;;;;;;0.15;0.15;;;;;;;;;;5015593;28;20104;-77
2022/06/21 01:48:12;;;;;;;0.00;0.00;;;;;;;;;;5002107;28;20056;-77
2022/06/21 01:50:40;;;;;;;0.63;0.30;;;;;;;;;;5020180;28;20041;-78
2022/06/21 01:53:07;;;;;;;0.47;0.47;;;;;;;;;;5031964;28;20053;-78
2022/06/21 01:55:41;;;;;;;0.73;0.30;;;;;;;;;;5041859;28;20034;-78
2022/06/21 01:58:11;;;;;;;0.52;0.30;;;;;;;;;;5017019;28;20044;-77
2022/06/21 02:00:39;;;;;;;0.95;0.55;;;;;;;;;;5032829;28;20080;-79
2022/06/21 02:03:12;;;;;;;0.30;0.30;;;;;;;;;;5016793;28;20029;-78
2022/06/21 02:05:43;;;;;;;0.20;0.20;;;;;;;;;;5016291;28;20043;-78
2022/06/21 02:08:15;;;;;;;0.38;0.35;;;;;;;;;;5001224;28;20021;-80
2022/06/21 02:10:49;;;;;;;0.20;0.20;;;;;;;;;;5002764;28;20457;-76
2022/06/21 02:13:42;;;;;;;2.10;1.13;;;;;;;;;;5016331;28;20037;-79
2022/06/21 02:16:19;;;;;;;0.90;0.70;;;;;;;;;;5012120;28;20111;-77
2022/06/21 02:18:55;;;;;;;0.55;0.52;;;;;;;;;;4997328;28;20022;-78
2022/06/21 02:21:28;;;;;;;1.85;0.95;;;;;;;;;;5006024;28;20030;-78
2022/06/21 02:23:55;;;;;;;1.00;0.90;;;;;;;;;;4996635;28;20335;-78
2022/06/21 02:26:22;;;;;;;0.32;0.20;;;;;;;;;;5025533;28;20056;-78
2022/06/21 02:28:47;;;;;;;0.40;0.40;;;;;;;;;;5013977;28;20053;-78
2022/06/21 02:31:13;;;;;;;0.63;0.63;;;;;;;;;;4997741;28;20436;-78
2022/06/21 02:33:42;;;;;;;0.75;0.75;;;;;;;;;;5012299;28;20026;-78
2022/06/21 02:36:12;;;;;;;0.13;0.13;;;;;;;;;;5013716;28;20057;-75
2022/06/21 02:38:45;;;;;;;0.30;0.22;;;;;;;;;;5012855;28;20026;-79
2022/06/21 02:41:15;;;;;;;0.10;0.10;;;;;;;;;;5026065;28;20470;-78
2022/06/21 02:43:47;;;;;;;3.20;0.93;;;;;;;;;;5012584;28;20459;-78
2022/06/21 02:46:19;;;;;;;0.77;0.77;;;;;;;;;;5003704;28;20116;-76
2022/06/21 02:48:52;;;;;;;1.17;0.77;;;;;;;;;;5010598;28;20061;-78
2022/06/21 02:51:21;;;;;;;0.45;0.45;;;;;;;;;;5012673;28;20060;-76
2022/06/21 02:54:08;;;;;;;0.63;0.63;;;;;;;;;;5006799;28;20102;-77
2022/06/21 02:56:37;;;;;;;0.50;0.50;;;;;;;;;;5020301;28;20041;-77
2022/06/21 02:59:03;;;;;;;0.20;0.20;;;;;;;;;;5014870;28;20044;-77
2022/06/21 03:01:34;;;;;;;0.20;0.20;;;;;;;;;;5017245;28;20065;-78
2022/06/21 03:04:00;;;;;;;0.10;0.10;;;;;;;;;;5023447;28;20022;-78
2022/06/21 03:06:26;;;;;;;1.95;0.82;;;;;;;;;;5015600;28;20034;-78
2022/06/21 03:08:56;;;;;;;0.88;0.85;;;;;;;;;;5017004;28;20029;-77
2022/06/21 03:11:23;;;;;;;0.77;0.35;;;;;;;;;;5016732;28;20117;-77
2022/06/21 03:13:49;;;;;;;1.40;1.27;;;;;;;;;;5015326;28;20056;-77
2022/06/21 03:16:18;;;;;;;1.35;0.52;;;;;;;;;;5013399;28;20026;-77
2022/06/21 03:18:48;;;;;;;0.43;0.43;;;;;;;;;;5015151;28;20105;-77
2022/06/21 03:21:14;;;;;;;0.80;0.70;;;;;;;;;;5014250;28;20026;-77
2022/06/21 03:23:44;;;;;;;0.60;0.57;;;;;;;;;;5018008;28;20024;-78
2022/06/21 03:26:12;;;;;;;0.50;0.50;;;;;;;;;;4997956;28;20044;-77
2022/06/21 03:28:42;;;;;;;0.63;0.45;;;;;;;;;;5016084;28;20084;-77
2022/06/21 03:31:21;;;;;;;0.15;0.15;;;;;;;;;;5014969;28;20026;-77
2022/06/21 03:33:49;;;;;;;0.95;0.70;;;;;;;;;;5015089;28;20041;-77
2022/06/21 03:36:19;;;;;;;0.40;0.22;;;;;;;;;;5015218;28;20030;-78
2022/06/21 03:38:53;;;;;;;0.47;0.38;;;;;;;;;;5015536;28;20453;-78
2022/06/21 03:44:11;;;;;;;0.77;0.77;;;;;;;;;;5014735;28;20084;-77
2022/06/21 03:47:05;;;;;;;0.20;0.20;;;;;;;;;;5019215;28;20379;-78
2022/06/21 03:49:45;;;;;;;0.30;0.30;;;;;;;;;;5020954;28;20120;-78
2022/06/21 03:52:41;;;;;;;0.47;0.35;;;;;;;;;;4998973;28;20047;-76
2022/06/21 03:55:29;;;;;;;0.47;0.47;;;;;;;;;;5012670;28;20360;-77
2022/06/21 03:58:10;;;;;;;0.63;0.38;;;;;;;;;;4996106;28;20042;-77
2022/06/21 04:00:48;;;;;;;1.30;0.60;;;;;;;;;;5014084;28;20703;-76
2022/06/21 04:03:20;;;;;;;2.35;0.82;;;;;;;;;;5013882;28;20026;-76
2022/06/21 04:05:51;;;;;;;0.22;0.20;;;;;;;;;;5015032;28;20045;-77
2022/06/21 04:08:30;;;;;;;0.30;0.30;;;;;;;;;;5014773;28;20038;-76
2022/06/21 04:11:09;;;;;;;0.45;0.45;;;;;;;;;;5012947;28;20041;-77
2022/06/21 04:13:41;;;;;;;0.00;0.00;;;;;;;;;;5014488;28;20041;-76
2022/06/21 04:16:09;;;;;;;0.30;0.30;;;;;;;;;;5011526;28;20030;-76
2022/06/21 04:18:38;;;;;;;0.63;0.63;;;;;;;;;;5013552;28;20481;-79
2022/06/21 04:21:27;;;;;;;0.50;0.35;;;;;;;;;;5013636;28;20080;-78
2022/06/21 04:24:00;;;;;;;0.25;0.25;;;;;;;;;;5012270;28;20041;-79
2022/06/21 04:26:32;;;;;;;0.70;0.63;;;;;;;;;;4992085;28;20026;-81
2022/06/21 04:29:24;;;;;;;0.93;0.28;;;;;;;;;;5017206;28;20026;-80
2022/06/21 04:31:56;;;;;;;0.25;0.25;;;;;;;;;;5011616;28;20036;-81
2022/06/21 04:34:30;;;;;;;0.47;0.47;;;;;;;;;;5010715;28;20033;-80
2022/06/21 04:37:40;;;;;;;0.45;0.38;;;;;;;;;;4998645;28;20033;-81
2022/06/21 04:40:32;;;;;;;0.50;0.50;;;;;;;;;;5010387;28;20085;-81
2022/06/21 04:43:13;;;;;;;0.80;0.40;;;;;;;;;;5022374;28;20098;-83
2022/06/21 04:45:44;;;;;;;0.77;0.67;;;;;;;;;;5016054;28;20052;-81
2022/06/21 04:48:22;;;;;;;0.45;0.45;;;;;;;;;;5012803;28;20029;-81
2022/06/21 04:51:00;;;;;;;0.90;0.90;;;;;;;;;;5019596;28;20025;-81
2022/06/21 04:53:31;;;;;;;0.35;0.35;;;;;;;;;;5011029;28;20033;-81
2022/06/21 04:56:10;;;;;;;0.38;0.30;;;;;;;;;;5015538;28;20112;-80
2022/06/21 04:58:38;;;;;;;0.35;0.35;;;;;;;;;;5019339;28;20049;-80
2022/06/21 05:01:29;;;;;;;4.80;0.70;;;;;;;;;;5015907;28;20472;-79
2022/06/21 05:03:53;;;;;;;1.58;0.60;;;;;;;;;;5011950;28;20129;-80
2022/06/21 05:06:21;;;;;;;1.85;0.77;;;;;;;;;;5018780;28;20030;-77
2022/06/21 05:08:49;;;;;;;4.03;1.10;;;;;;;;;;5027372;28;20050;-80
2022/06/21 05:11:17;;;;;;;0.45;0.38;;;;;;;;;;5032579;28;20025;-79
2022/06/21 05:13:50;;;;;;;0.13;0.13;;;;;;;;;;5033834;28;20026;-79
2022/06/21 05:16:32;;;;;;;0.20;0.20;;;;;;;;;;5024411;28;20029;-80
2022/06/21 05:19:08;;;;;;;0.63;0.55;;;;;;;;;;5013928;28;20407;-80
2022/06/21 05:21:40;;;;;;;0.30;0.20;;;;;;;;;;5013608;28;20068;-81
2022/06/21 05:24:08;;;;;;;3.40;1.25;;;;;;;;;;5013150;28;20511;-80
2022/06/21 05:26:50;;;;;;;0.63;0.30;;;;;;;;;;5013852;28;20045;-80
2022/06/21 05:29:22;;;;;;;0.68;0.60;;;;;;;;;;5002844;28;20034;-80
2022/06/21 05:31:51;;;;;;;2.03;1.70;;;;;;;;;;5002785;28;20459;-79
2022/06/21 05:34:25;;;;;;;0.85;0.73;;;;;;;;;;5017172;28;20018;-79
2022/06/21 05:36:59;;;;;;;0.68;0.45;;;;;;;;;;4997854;28;20025;-80
2022/06/21 05:39:49;;;;;;;0.35;0.35;;;;;;;;;;5003232;28;20094;-79
2022/06/21 05:42:16;;;;;;;0.43;0.43;;;;;;;;;;4997976;28;20026;-80
2022/06/21 05:44:46;;;;;;;0.47;0.43;;;;;;;;;;4996832;28;20022;-80
2022/06/21 05:47:26;;;;;;;1.20;1.08;;;;;;;;;;5013555;28;20041;-81
2022/06/21 05:49:51;;;;;;;0.20;0.20;;;;;;;;;;5010725;28;20033;-80
2022/06/21 05:52:25;;;;;;;0.38;0.22;;;;;;;;;;5028921;28;20041;-80
2022/06/21 05:55:02;;;;;;;0.32;0.25;;;;;;;;;;5019662;28;20030;-78
2022/06/21 05:57:44;;;;;;;0.73;0.50;;;;;;;;;;4993893;28;20041;-80
2022/06/21 06:00:53;;;;;;;0.08;0.08;;;;;;;;;;5014263;28;20030;-80
2022/06/21 06:03:26;;;;;;;1.25;1.15;;;;;;;;;;4982673;28;20045;-80
2022/06/21 06:05:53;;;;;;;0.47;0.47;;;;;;;;;;5015530;28;20033;-80
2022/06/21 06:08:23;;;;;;;0.73;0.45;;;;;;;;;;5009784;28;20018;-79
2022/06/21 06:10:49;;;;;;;0.30;0.30;;;;;;;;;;5013471;28;20045;-80
2022/06/21 06:13:23;;;;;;;1.50;0.70;;;;;;;;;;5017970;28;20034;-83
2022/06/21 06:15:55;;;;;;;0.55;0.55;;;;;;;;;;5016631;28;20463;-80
2022/06/21 06:18:49;;;;;;;0.68;0.60;;;;;;;;;;5015798;28;20022;-81
2022/06/21 06:21:36;;;;;;;0.90;0.47;;;;;;;;;;5015473;28;20386;-80
2022/06/21 06:24:03;;;;;;;1.02;0.80;;;;;;;;;;5024426;28;20036;-79
2022/06/21 06:26:35;;;;;;;0.90;0.50;;;;;;;;;;4997022;28;20030;-80
2022/06/21 06:29:04;;;;;;;8.70;0.70;;;;;;;;;;5017198;28;20022;-80
2022/06/21 06:31:38;;;;;;;0.93;0.85;;;;;;;;;;5015413;28;20097;-79
2022/06/21 06:34:15;;;;;;;0.43;0.43;;;;;;;;;;5016002;28;20030;-78
2022/06/21 06:36:44;;;;;;;0.55;0.55;;;;;;;;;;5010994;28;20022;-80
2022/06/21 06:39:18;;;;;;;0.50;0.43;;;;;;;;;;5005086;28;20021;-79
2022/06/21 06:41:50;;;;;;;0.98;0.50;;;;;;;;;;5008969;28;20026;-80
2022/06/21 06:44:19;;;;;;;1.48;0.98;;;;;;;;;;5017472;28;20022;-79
2022/06/21 06:46:48;;;;;;;0.08;0.08;;;;;;;;;;5022413;28;20084;-80
2022/06/21 06:49:31;;;;;;;0.77;0.55;;;;;;;;;;5013754;28;20554;-79
2022/06/21 06:52:04;;;;;;;0.65;0.52;;;;;;;;;;5016500;28;20033;-80
2022/06/21 06:54:50;;;;;;;0.25;0.20;;;;;;;;;;5018969;28;20048;-80
2022/06/21 06:57:18;;;;;;;0.63;0.55;;;;;;;;;;5014393;28;20033;-80
2022/06/21 06:59:44;;;;;;;0.47;0.47;;;;;;;;;;5023115;28;20493;-80
2022/06/21 07:02:33;;;;;;;0.40;0.40;;;;;;;;;;5026054;28;20033;-81
2022/06/21 07:05:28;;;;;;;0.55;0.55;;;;;;;;;;5017896;28;20390;-80
2022/06/21 07:07:57;;;;;;;5.93;1.48;;;;;;;;;;5024711;28;20041;-80
2022/06/21 07:10:26;;;;;;;0.60;0.45;;;;;;;;;;5014963;28;20104;-80
2022/06/21 07:12:55;;;;;;;0.30;0.30;;;;;;;;;;5017975;28;20032;-81
2022/06/21 07:15:41;;;;;;;0.15;0.15;;;;;;;;;;5018060;28;20033;-81
2022/06/21 07:18:25;;;;;;;0.10;0.10;;;;;;;;;;5015186;28;20036;-80
2022/06/21 07:20:53;;;;;;;0.20;0.20;;;;;;;;;;5010010;28;20030;-80
2022/06/21 07:23:26;;;;;;;0.22;0.20;;;;;;;;;;5015814;28;20105;-80
2022/06/21 07:25:55;;;;;;;2.92;0.35;;;;;;;;;;5018020;28;20045;-80
2022/06/21 07:28:27;;;;;;;2.20;0.40;;;;;;;;;;5016616;28;20026;-80
2022/06/21 07:30:54;;;;;;;0.22;0.17;;;;;;;;;;5017593;28;20034;-81
2022/06/21 07:33:38;;;;;;;1.95;0.85;;;;;;;;;;5015374;28;20109;-80
2022/06/21 07:36:08;;;;;;;0.52;0.52;;;;;;;;;;5014114;28;20360;-81
2022/06/21 07:39:12;;;;;;;0.00;0.00;;;;;;;;;;5015169;28;20084;-80
2022/06/21 07:41:37;;;;;;;0.50;0.20;;;;;;;;;;4978557;28;20030;-81
2022/06/21 07:44:11;;;;;;;1.20;1.08;;;;;;;;;;4999995;28;20056;-80
2022/06/21 07:46:52;;;;;;;0.10;0.10;;;;;;;;;;5017131;28;20018;-81
2022/06/21 07:49:26;;;;;;;0.30;0.30;;;;;;;;;;4998341;28;20035;-79
2022/06/21 07:51:57;;;;;;;0.28;0.28;;;;;;;;;;5012381;28;20033;-77
2022/06/21 07:54:25;;;;;;;;;;;;;;;;;;5013600;28;20041;-82
2022/06/21 07:56:54;;;;;;;0.20;0.15;;;;;;;;;;5014937;28;19920;-82
2022/06/21 07:59:51;;;;;;;0.20;0.15;;;;;;;;;;5014838;28;20029;-80
2022/06/21 08:07:56;;;;;;;0.30;0.30;;;;;;;;;;5004160;28;20037;-82
2022/06/21 08:10:31;;;;;;;1.45;0.13;;;;;;;;;;5014777;28;20054;-82
2022/06/21 08:12:57;;;;;;;0.35;0.20;;;;;;;;;;5015442;28;20088;-82
2022/06/21 08:15:26;;;;;;;0.30;0.30;;;;;;;;;;5015071;28;20030;-82
2022/06/21 08:18:09;;;;;;;0.20;0.20;;;;;;;;;;5016434;28;20052;-78
2022/06/21 08:20:48;;;;;;;0.22;0.17;;;;;;;;;;5015181;28;20045;-81
2022/06/21 08:23:19;;;;;;;0.65;0.65;;;;;;;;;;5003431;28;20025;-78
2022/06/21 08:25:47;;;;;;;0.22;0.22;;;;;;;;;;5011300;28;20029;-80
2022/06/21 08:28:48;;;;;;;1.63;0.73;;;;;;;;;;5012955;28;20046;-79
2022/06/21 08:31:28;;;;;;;0.30;0.30;;;;;;;;;;5012272;28;20148;-80
2022/06/21 08:33:57;;;;;;;0.00;0.00;;;;;;;;;;5014099;28;20152;-79
2022/06/21 08:36:32;;;;;;;0.20;0.20;;;;;;;;;;5011958;28;20033;-80
2022/06/21 08:39:04;;;;;;;0.20;0.20;;;;;;;;;;5013765;28;20438;-80
2022/06/21 08:41:56;;;;;;;0.22;0.22;;;;;;;;;;5015496;28;20033;-79
2022/06/21 08:45:40;;;;;;;0.10;0.10;;;;;;;;;;5015947;28;20026;-77
2022/06/21 08:47:43;;;;;;;0.47;0.10;;;;;;;;;;5013519;28;20443;-77
2022/06/21 08:50:17;;;;;;;0.25;0.25;;;;;;;;;;5015238;28;20068;-79
2022/06/21 08:53:02;;;;;;;1.23;0.77;;;;;;;;;;5005574;28;20057;-78
2022/06/21 08:55:31;;;;;;;1.13;0.52;;;;;;;;;;5011576;28;20033;-77
2022/06/21 08:58:35;;;;;;;0.15;0.10;;;;;;;;;;5014607;28;20032;-77
2022/06/21 09:01:26;;;;;;;0.22;0.20;;;;;;;;;;5011876;28;20050;-78
2022/06/21 09:04:04;;;;;;;4.88;0.50;;;;;;;;;;5009747;28;20029;-78
2022/06/21 09:06:53;;;;;;;0.70;0.35;;;;;;;;;;5006285;28;20030;-77
2022/06/21 09:09:29;;;;;;;0.20;0.20;;;;;;;;;;5014463;28;20053;-77
2022/06/21 09:12:24;;;;;;;0.25;0.20;;;;;;;;;;5014102;28;20033;-78
2022/06/21 09:15:14;;;;;;;0.00;0.00;;;;;;;;;;4997268;28;20044;-78
2022/06/21 09:17:51;;;;;;;1.55;0.43;;;;;;;;;;5013774;28;20367;-78
2022/06/21 09:20:25;;;;;;;0.17;0.13;;;;;;;;;;5013233;28;20018;-79
2022/06/21 09:23:00;;;;;;;0.63;0.35;;;;;;;;;;5019289;28;20038;-78
2022/06/21 09:25:39;;;;;;;0.32;0.32;;;;;;;;;;5010984;28;20077;-78
2022/06/21 09:28:10;;;;;;;0.20;0.20;;;;;;;;;;5003987;28;20104;-79
2022/06/21 09:31:05;;;;;;;0.05;0.05;;;;;;;;;;5018227;28;20033;-78
2022/06/21 09:33:30;;;;;;;0.63;0.50;;;;;;;;;;5014821;28;20056;-78
2022/06/21 09:36:19;;;;;;;0.43;0.30;;;;;;;;;;5019949;28;20033;-79
2022/06/21 09:38:55;;;;;;;1.80;0.50;;;;;;;;;;5009681;28;20520;-79
2022/06/21 09:41:27;;;;;;;0.30;0.30;;;;;;;;;;5012366;28;20025;-79
2022/06/21 09:44:33;;;;;;;0.15;0.13;;;;;;;;;;5013552;28;20080;-79
2022/06/21 09:47:04;;;;;;;0.30;0.30;;;;;;;;;;5013773;28;20128;-77
2022/06/21 09:49:39;;;;;;;0.60;0.50;;;;;;;;;;5010942;28;20431;-77
2022/06/21 09:52:31;;;;;;;0.20;0.20;;;;;;;;;;5014370;28;20056;-77
2022/06/21 09:55:45;;;;;;;0.05;0.05;;;;;;;;;;5011953;28;20120;-78
2022/06/21 09:58:36;;;;;;;0.08;0.08;;;;;;;;;;5010349;28;20048;-77
2022/06/21 10:01:38;;;;;;;0.20;0.20;;;;;;;;;;5017545;28;20076;-78
2022/06/21 10:04:58;;;;;;;0.82;0.40;;;;;;;;;;5010443;28;20026;-78
2022/06/21 10:07:55;;;;;;;0.17;0.17;;;;;;;;;;4944117;28;20104;-81
2022/06/21 10:10:20;;;;;;;0.20;0.20;;;;;;;;;;4957433;28;20027;-82
2022/06/21 10:13:04;;;;;;;1.85;0.88;;;;;;;;;;4972562;28;20081;-80
2022/06/21 10:15:33;;;;;;;0.20;0.15;;;;;;;;;;4969600;28;20356;-79
2022/06/21 10:18:19;;;;;;;0.38;0.38;;;;;;;;;;4935369;28;20480;-80
2022/06/21 10:21:15;;;;;;;1.00;0.60;;;;;;;;;;4974047;28;20089;-87
2022/06/21 10:23:49;;;;;;;0.10;0.10;;;;;;;;;;4972633;28;20060;-83
2022/06/21 10:26:41;;;;;;;0.45;0.32;;;;;;;;;;4972117;28;20050;-80
2022/06/21 10:29:36;;;;;;;0.45;0.40;;;;;;;;;;4972932;28;21368;-78
2022/06/21 10:32:30;;;;;;;0.45;0.25;;;;;;;;;;4971214;28;20030;-77
2022/06/21 10:35:04;;;;;;;0.90;0.20;;;;;;;;;;4960771;28;20042;-78
2022/06/21 10:37:44;;;;;;;0.38;0.30;;;;;;;;;;5012744;28;20060;-77
2022/06/21 10:40:38;;;;;;;0.43;0.20;;;;;;;;;;5010144;28;20022;-78
2022/06/21 10:43:33;;;;;;;1.27;0.28;;;;;;;;;;5011902;28;20026;-78
2022/06/21 10:46:00;;;;;;;0.40;0.40;;;;;;;;;;5014202;28;20075;-79
2022/06/21 10:48:44;;;;;;;0.20;0.20;;;;;;;;;;5009987;28;20037;-80
2022/06/21 10:51:53;;;;;;;0.20;0.20;;;;;;;;;;5014064;28;20022;-77
2022/06/21 10:54:37;;;;;;;1.75;0.55;;;;;;;;;;5032501;28;20098;-81
2022/06/21 10:57:09;;;;;;;0.13;0.13;;;;;;;;;;5013102;28;20336;-81
2022/06/21 11:02:34;;;;;;;0.10;0.10;;;;;;;;;;5005122;28;20045;-79
2022/06/21 11:05:28;;;;;;;1.20;0.38;;;;;;;;;;4996624;28;20412;-78
2022/06/21 11:08:06;;;;;;;0.73;0.63;;;;;;;;;;5024829;28;20042;-79
2022/06/21 11:10:35;;;;;;;0.30;0.30;;;;;;;;;;5012187;28;20022;-80
2022/06/21 11:13:04;;;;;;;0.40;0.40;;;;;;;;;;5004894;28;20120;-79
2022/06/21 11:15:42;;;;;;;0.25;0.25;;;;;;;;;;5012830;28;20037;-79
2022/06/21 11:18:12;;;;;;;0.75;0.45;;;;;;;;;;5016944;28;20038;-79
2022/06/21 11:21:02;;;;;;;0.60;0.38;;;;;;;;;;5021683;28;20464;-79
2022/06/21 11:23:33;;;;;;;0.13;0.13;;;;;;;;;;5022061;28;20030;-79
2022/06/21 11:25:59;;;;;;;1.05;0.82;;;;;;;;;;5019671;28;20417;-79
2022/06/21 11:28:53;;;;;;;0.20;0.20;;;;;;;;;;5014108;28;20112;-77
2022/06/21 11:31:28;;;;;;;0.22;0.22;;;;;;;;;;5006315;28;20030;-78
2022/06/21 11:34:28;;;;;;;0.55;0.32;;;;;;;;;;5015068;28;20029;-77
2022/06/21 11:37:08;;;;;;;0.20;0.20;;;;;;;;;;5022330;28;20095;-78
2022/06/21 11:39:55;;;;;;;1.88;0.73;;;;;;;;;;5016811;28;20501;-79
2022/06/21 11:42:25;;;;;;;0.93;0.55;;;;;;;;;;5016443;28;20030;-80
2022/06/21 11:45:34;;;;;;;0.90;0.43;;;;;;;;;;5013208;28;20410;-77
2022/06/21 11:48:21;;;;;;;0.52;0.52;;;;;;;;;;4997997;28;20034;-76
2022/06/21 11:50:53;;;;;;;1.00;0.50;;;;;;;;;;5010628;28;20450;-77
2022/06/21 11:53:31;;;;;;;1.05;0.88;;;;;;;;;;5013142;28;20038;-79
2022/06/21 11:56:10;;;;;;;0.20;0.20;;;;;;;;;;5011292;28;20033;-79
2022/06/21 11:58:40;;;;;;;0.47;0.47;;;;;;;;;;4999629;28;20362;-80
2022/06/21 12:01:14;;;;;;;1.42;0.55;;;;;;;;;;4996632;28;20022;-79
2022/06/21 12:03:55;;;;;;;0.28;0.28;;;;;;;;;;5013151;28;20044;-78
2022/06/21 12:06:34;;;;;;;0.75;0.40;;;;;;;;;;5016074;28;20057;-80
2022/06/21 12:09:13;;;;;;;0.20;0.20;;;;;;;;;;5007505;28;20585;-78
2022/06/21 12:11:54;;;;;;;0.50;0.35;;;;;;;;;;5015305;28;20029;-78
2022/06/21 12:14:37;;;;;;;0.17;0.17;;;;;;;;;;5014422;28;20105;-80
2022/06/21 12:17:15;;;;;;;0.20;0.20;;;;;;;;;;5016507;28;20021;-79
2022/06/21 12:19:46;;;;;;;2.03;0.93;;;;;;;;;;5014725;28;20060;-79
2022/06/21 12:22:37;;;;;;;1.05;0.95;;;;;;;;;;5015245;28;20036;-79
2022/06/21 12:25:03;;;;;;;1.08;0.75;;;;;;;;;;5015470;28;20026;-79
2022/06/21 12:27:29;;;;;;;0.65;0.50;;;;;;;;;;5015239;28;20029;-79
2022/06/21 12:29:59;;;;;;;0.32;0.28;;;;;;;;;;5016219;28;20026;-79
2022/06/21 12:32:27;;;;;;;0.57;0.52;;;;;;;;;;5009749;28;20049;-75
2022/06/21 12:35:03;;;;;;;0.90;0.57;;;;;;;;;;5006665;28;20052;-74
2022/06/21 12:37:36;;;;;;;0.25;0.25;;;;;;;;;;5015242;28;20044;-74
2022/06/21 12:40:13;;;;;;;1.33;0.55;;;;;;;;;;4997356;28;20025;-74
2022/06/21 12:43:11;;;;;;;0.85;0.80;;;;;;;;;;4996512;28;20026;-74
2022/06/21 12:46:03;;;;;;;0.70;0.70;;;;;;;;;;4996127;28;20644;-74
2022/06/21 12:48:52;;;;;;;1.45;0.82;;;;;;;;;;5011778;28;20076;-74
2022/06/21 12:51:56;;;;;;;0.30;0.20;;;;;;;;;;4996252;28;20035;-74
2022/06/21 12:54:39;;;;;;;1.30;0.15;;;;;;;;;;4996228;28;20444;-73
2022/06/21 12:57:47;;;;;;;0.80;0.40;;;;;;;;;;5031694;28;20042;-74
2022/06/21 13:00:24;;;;;;;0.28;0.28;;;;;;;;;;5005290;28;20534;-73
2022/06/21 13:03:05;;;;;;;0.55;0.55;;;;;;;;;;5011794;28;20093;-73
2022/06/21 13:05:42;;;;;;;2.17;1.00;;;;;;;;;;4996260;28;20106;-74
2022/06/21 13:08:32;;;;;;;0.50;0.30;;;;;;;;;;5014924;28;20115;-74
2022/06/21 13:11:00;;;;;;;0.15;0.15;;;;;;;;;;5015115;28;20101;-74
2022/06/21 13:13:31;;;;;;;0.32;0.32;;;;;;;;;;5015427;28;20080;-74
2022/06/21 13:16:23;;;;;;;1.03;0.70;;;;;;;;;;5015538;28;20049;-74
2022/06/21 13:19:00;;;;;;;0.10;0.10;;;;;;;;;;5015640;28;20147;-75
2022/06/21 13:21:40;;;;;;;0.85;0.57;;;;;;;;;;5015682;28;20091;-74
2022/06/21 13:24:33;;;;;;;0.38;0.38;;;;;;;;;;5015700;28;20022;-73
2022/06/21 13:27:13;;;;;;;0.10;0.10;;;;;;;;;;5012269;28;20044;-74
2022/06/21 13:30:00;;;;;;;0.20;0.20;;;;;;;;;;5015138;28;20116;-74
2022/06/21 13:32:32;;;;;;;0.40;0.30;;;;;;;;;;5015009;28;20018;-73
2022/06/21 13:35:13;;;;;;;3.03;0.37;;;;;;;;;;5015304;28;20017;-74
2022/06/21 13:37:49;;;;;;;0.20;0.20;;;;;;;;;;5014101;28;20346;-74
2022/06/21 13:40:17;;;;;;;0.47;0.30;;;;;;;;;;4997577;28;20022;-74
2022/06/21 13:42:48;;;;;;;0.30;0.30;;;;;;;;;;5013589;28;20025;-73
2022/06/21 13:45:43;;;;;;;0.88;0.65;;;;;;;;;;5014801;28;20022;-74
2022/06/21 13:48:34;;;;;;;0.52;0.40;;;;;;;;;;5014903;28;20041;-73
2022/06/21 13:51:23;;;;;;;0.10;0.10;;;;;;;;;;5013963;28;20482;-74
2022/06/21 13:53:56;;;;;;;0.73;0.52;;;;;;;;;;5014774;28;20037;-74
2022/06/21 13:56:28;;;;;;;0.10;0.10;;;;;;;;;;5013541;28;20370;-74
2022/06/21 13:59:20;;;;;;;0.40;0.35;;;;;;;;;;4995102;28;20037;-74
2022/06/21 14:01:58;;;;;;;0.40;0.40;;;;;;;;;;4978396;28;20027;-74
2022/06/21 14:04:51;;;;;;;0.40;0.40;;;;;;;;;;4995239;28;20045;-74
2022/06/21 14:07:19;;;;;;;0.32;0.32;;;;;;;;;;4994194;28;20084;-74
2022/06/21 14:10:03;;;;;;;0.30;0.30;;;;;;;;;;5004253;28;20125;-74
2022/06/21 14:12:51;;;;;;;0.22;0.22;;;;;;;;;;5015068;28;20033;-74
2022/06/21 14:15:19;;;;;;;0.20;0.20;;;;;;;;;;5013717;28;20054;-74
2022/06/21 14:17:47;;;;;;;2.03;0.30;;;;;;;;;;5013662;28;20026;-75
2022/06/21 14:20:18;;;;;;;0.10;0.10;;;;;;;;;;5014247;28;20022;-74
2022/06/21 14:22:46;;;;;;;0.35;0.22;;;;;;;;;;5014466;28;20101;-75
2022/06/21 14:25:18;;;;;;;0.10;0.10;;;;;;;;;;5013975;28;20057;-75
2022/06/21 14:27:51;;;;;;;1.63;0.80;;;;;;;;;;5013227;28;20463;-75
2022/06/21 14:30:40;;;;;;;0.45;0.35;;;;;;;;;;5013792;28;20025;-75
2022/06/21 14:33:17;;;;;;;0.50;0.50;;;;;;;;;;5016071;28;20144;-75
2022/06/21 14:35:54;;;;;;;0.10;0.10;;;;;;;;;;5033064;28;20037;-75
2022/06/21 14:38:43;;;;;;;0.17;0.17;;;;;;;;;;5011780;28;20378;-75
2022/06/21 14:41:14;;;;;;;1.23;0.73;;;;;;;;;;5012859;28;20344;-75
2022/06/21 14:43:50;;;;;;;0.40;0.30;;;;;;;;;;5013379;28;20416;-75
2022/06/21 14:46:30;;;;;;;0.60;0.22;;;;;;;;;;4997383;28;20041;-75
2022/06/21 14:49:26;;;;;;;2.72;0.77;;;;;;;;;;5013379;28;20033;-75
2022/06/21 14:52:29;;;;;;;0.25;0.25;;;;;;;;;;5013443;28;20030;-75
2022/06/21 14:55:03;;;;;;;;;;;;;;;;;;5017031;28;20072;-75
2022/06/21 14:57:45;;;;;;;1.08;0.88;;;;;;;;;;5018017;28;19949;-75
2022/06/21 15:00:35;;;;;;;0.85;0.13;;;;;;;;;;5017176;28;20042;-75
2022/06/21 15:03:19;;;;;;;0.98;0.38;;;;;;;;;;5013758;28;20058;-75
2022/06/21 15:05:51;;;;;;;0.30;0.30;;;;;;;;;;5013648;28;20030;-75
2022/06/21 15:08:24;;;;;;;0.85;0.20;;;;;;;;;;5017535;28;20029;-75
2022/06/21 15:11:04;;;;;;;0.98;0.20;;;;;;;;;;5019972;28;20084;-75
2022/06/21 15:13:42;;;;;;;0.40;0.40;;;;;;;;;;5017265;28;20740;-75
2022/06/21 15:16:13;;;;;;;0.30;0.30;;;;;;;;;;5001839;28;20120;-75
2022/06/21 15:18:50;;;;;;;0.40;0.40;;;;;;;;;;5034534;28;20021;-75
2022/06/21 15:21:20;;;;;;;2.00;0.90;;;;;;;;;;5016695;28;20080;-76
2022/06/21 15:24:07;;;;;;;0.17;0.17;;;;;;;;;;5017462;28;20018;-75
2022/06/21 15:27:00;;;;;;;0.10;0.10;;;;;;;;;;5016729;28;20030;-75
2022/06/21 15:29:31;;;;;;;;;;;;;;;;;;5006351;28;20160;-76
2022/06/21 15:32:05;;;;;;;0.20;0.20;;;;;;;;;;5037179;28;19951;-75
2022/06/21 15:34:37;;;;;;;0.90;0.35;;;;;;;;;;5036936;28;20029;-75
2022/06/21 15:37:27;;;;;;;3.65;1.10;;;;;;;;;;5023439;28;20029;-75
2022/06/21 15:40:07;;;;;;;0.70;0.60;;;;;;;;;;5016089;28;20029;-75
2022/06/21 15:42:56;;;;;;;0.40;0.40;;;;;;;;;;5002814;28;20022;-75
2022/06/21 15:45:37;;;;;;;0.55;0.55;;;;;;;;;;5011593;28;20367;-75
2022/06/21 15:51:16;;;;;;;0.35;0.30;;;;;;;;;;4997429;28;20084;-75
2022/06/21 15:53:45;;;;;;;1.02;0.60;;;;;;;;;;4980107;28;20041;-75
2022/06/21 15:56:19;;;;;;;0.22;0.22;;;;;;;;;;4997250;28;20427;-75
2022/06/21 15:59:09;;;;;;;0.20;0.20;;;;;;;;;;5013440;28;20029;-75